Time;durP1;ratioP1;P1;durP2;ratioP2;P2;SDS_P1;SDS_P2;PMS_P1;PMS_P2;Temp;Humidity;BMP_temperature;BMP_pressure;BME280_temperature;BME280_humidity;BME280_pressure;Samples;Min_cycle;Max_cycle;Signal;HPM_P1;HPM_P2
2022/11/08 00:02:32;;;;;;;7.30;1.95;;;12.70;99.90;;;;;;5064083;28;20485;-84
2022/11/08 00:04:58;;;;;;;4.80;1.80;;;12.70;99.90;;;;;;5039970;28;20041;-84
2022/11/08 00:15:37;;;;;;;6.20;1.85;;;12.70;99.90;;;;;;5076185;28;20071;-82
2022/11/08 00:18:06;;;;;;;6.63;1.77;;;12.70;99.90;;;;;;5076390;28;20048;-82
2022/11/08 00:20:32;;;;;;;4.22;1.65;;;12.70;99.90;;;;;;5060268;28;20498;-82
2022/11/08 00:22:58;;;;;;;6.85;1.67;;;12.70;99.90;;;;;;5068605;28;20040;-82
2022/11/08 00:25:24;;;;;;;5.95;2.20;;;12.70;99.90;;;;;;5052982;28;20063;-82
2022/11/08 00:27:49;;;;;;;6.55;2.13;;;12.70;99.90;;;;;;5059405;28;20047;-82
2022/11/08 00:30:15;;;;;;;6.68;2.90;;;12.70;99.90;;;;;;5077165;28;20044;-82
2022/11/08 00:32:41;;;;;;;3.17;1.50;;;12.70;99.90;;;;;;5059632;28;20040;-82
2022/11/08 00:35:07;;;;;;;6.80;1.65;;;12.70;99.90;;;;;;5043298;28;20039;-83
2022/11/08 00:37:33;;;;;;;7.15;1.77;;;12.70;99.90;;;;;;5073369;28;20044;-83
2022/11/08 00:39:59;;;;;;;4.15;1.40;;;12.70;99.90;;;;;;5059597;28;20371;-83
2022/11/08 00:42:24;;;;;;;10.68;2.28;;;12.70;99.90;;;;;;5049852;28;20037;-82
2022/11/08 00:44:50;;;;;;;5.72;1.92;;;12.70;99.90;;;;;;5042912;28;20035;-82
2022/11/08 00:47:16;;;;;;;4.32;1.40;;;12.70;99.90;;;;;;5042173;28;20047;-83
2022/11/08 00:49:41;;;;;;;6.30;1.85;;;12.70;99.90;;;;;;5058664;28;20040;-82
2022/11/08 00:52:07;;;;;;;5.45;2.38;;;12.70;99.90;;;;;;5075631;28;20055;-82
2022/11/08 00:54:33;;;;;;;3.17;1.50;;;12.70;99.90;;;;;;5076059;28;20063;-82
2022/11/08 00:56:58;;;;;;;9.07;2.08;;;12.70;99.90;;;;;;5042528;28;20051;-83
2022/11/08 00:59:24;;;;;;;5.75;1.80;;;12.70;99.90;;;;;;5074144;28;20039;-81
2022/11/08 01:01:50;;;;;;;2.55;1.30;;;13.10;99.90;;;;;;5048641;28;20040;-83
2022/11/08 01:04:17;;;;;;;3.00;1.58;;;12.80;99.90;;;;;;5071366;28;20474;-84
2022/11/08 01:06:43;;;;;;;5.68;1.48;;;12.70;99.90;;;;;;5055075;28;20119;-84
2022/11/08 01:09:09;;;;;;;7.20;1.75;;;12.70;99.90;;;;;;5047145;28;20067;-83
2022/11/08 01:11:34;;;;;;;5.07;1.65;;;12.70;99.90;;;;;;5076074;28;20482;-84
2022/11/08 01:14:01;;;;;;;2.70;1.08;;;12.70;99.90;;;;;;5075468;28;20028;-84
2022/11/08 01:16:32;;;;;;;7.22;1.80;;;12.60;99.90;;;;;;5058831;28;20083;-84
2022/11/08 01:18:58;;;;;;;9.70;1.85;;;12.60;99.90;;;;;;5075483;28;20054;-83
2022/11/08 01:21:25;;;;;;;7.57;1.83;;;12.40;99.90;;;;;;5075291;28;20036;-83
2022/11/08 01:23:53;;;;;;;4.65;1.48;;;12.60;99.90;;;;;;5059243;28;20039;-83
2022/11/08 01:26:21;;;;;;;4.82;1.70;;;12.50;99.90;;;;;;5058463;28;20127;-82
2022/11/08 01:28:46;;;;;;;2.65;1.63;;;12.40;99.90;;;;;;5058636;28;20036;-82
2022/11/08 01:31:15;;;;;;;3.97;1.60;;;12.40;99.90;;;;;;5075169;28;20047;-82
2022/11/08 01:33:41;;;;;;;5.90;2.05;;;12.40;99.90;;;;;;5058894;28;20059;-83
2022/11/08 01:36:12;;;;;;;4.22;1.45;;;12.30;99.90;;;;;;5058778;28;20044;-83
2022/11/08 01:38:38;;;;;;;4.05;1.40;;;12.30;99.90;;;;;;5058196;28;20048;-83
2022/11/08 01:41:05;;;;;;;2.50;1.20;;;12.30;99.90;;;;;;5074664;28;20040;-83
2022/11/08 01:43:35;;;;;;;3.90;1.63;;;12.30;99.90;;;;;;5058520;28;20478;-83
2022/11/08 01:46:32;;;;;;;4.35;1.55;;;12.30;99.90;;;;;;5075223;28;20040;-82
2022/11/08 01:49:20;;;;;;;3.10;1.52;;;12.30;99.90;;;;;;5075540;28;20044;-83
2022/11/08 01:51:49;;;;;;;4.55;1.65;;;12.30;99.90;;;;;;5073822;28;20040;-83
2022/11/08 01:54:22;;;;;;;2.55;1.30;;;12.30;99.90;;;;;;5074832;28;20048;-82
2022/11/08 01:56:48;;;;;;;6.80;1.63;;;12.30;99.90;;;;;;5058568;28;20048;-82
2022/11/08 01:59:17;;;;;;;6.25;1.45;;;12.30;99.90;;;;;;5058706;28;20063;-82
2022/11/08 02:01:44;;;;;;;7.30;1.75;;;12.30;99.90;;;;;;5057961;28;20436;-82
2022/11/08 02:04:11;;;;;;;6.15;1.77;;;12.30;99.90;;;;;;5058536;28;20036;-82
2022/11/08 02:06:38;;;;;;;4.28;1.40;;;12.30;99.90;;;;;;5075344;28;20108;-82
2022/11/08 02:09:08;;;;;;;3.85;1.60;;;12.30;99.90;;;;;;5075065;28;20505;-82
2022/11/08 02:11:34;;;;;;;4.55;1.23;;;12.30;99.90;;;;;;5058095;28;20040;-82
2022/11/08 02:14:01;;;;;;;3.22;1.40;;;12.20;99.90;;;;;;5074381;28;20071;-82
2022/11/08 02:16:27;;;;;;;7.45;1.55;;;12.10;99.90;;;;;;5058189;28;20475;-83
2022/11/08 02:18:53;;;;;;;5.88;1.23;;;12.10;99.90;;;;;;5057943;28;20178;-83
2022/11/08 02:21:26;;;;;;;6.45;2.03;;;12.00;99.90;;;;;;5074137;28;20036;-83
2022/11/08 02:23:56;;;;;;;8.77;1.73;;;12.00;99.90;;;;;;5046098;28;20036;-82
2022/11/08 02:26:24;;;;;;;1.90;1.30;;;11.90;99.90;;;;;;5075272;28;20032;-82
2022/11/08 02:28:50;;;;;;;2.30;1.30;;;11.90;99.90;;;;;;5052545;28;20035;-84
2022/11/08 02:31:19;;;;;;;7.50;1.65;;;11.80;99.90;;;;;;5078046;28;20036;-84
2022/11/08 02:33:46;;;;;;;7.07;1.60;;;11.70;99.90;;;;;;5061283;28;20036;-84
2022/11/08 02:36:30;;;;;;;7.82;1.40;;;11.70;99.90;;;;;;5078228;28;20164;-84
2022/11/08 02:38:56;;;;;;;3.08;1.38;;;11.60;99.90;;;;;;5044897;28;20043;-84
2022/11/08 02:41:22;;;;;;;5.72;1.60;;;11.60;99.90;;;;;;5044324;28;20038;-84
2022/11/08 02:43:48;;;;;;;3.42;1.40;;;11.50;99.90;;;;;;5077960;28;20123;-83
2022/11/08 02:46:13;;;;;;;3.42;1.30;;;11.50;99.90;;;;;;5061321;28;20500;-82
2022/11/08 02:48:39;;;;;;;6.35;1.55;;;11.50;99.90;;;;;;5061439;28;20052;-82
2022/11/08 02:51:05;;;;;;;7.10;1.35;;;11.40;99.90;;;;;;5068240;28;20072;-82
2022/11/08 02:53:31;;;;;;;6.05;2.78;;;11.40;99.90;;;;;;5053056;28;20040;-82
2022/11/08 02:55:57;;;;;;;6.13;1.35;;;11.30;99.90;;;;;;5061601;28;20051;-82
2022/11/08 02:58:22;;;;;;;3.92;1.23;;;11.30;99.90;;;;;;5061099;28;20111;-82
2022/11/08 03:00:48;;;;;;;3.10;1.60;;;11.20;99.90;;;;;;5061540;28;20134;-83
2022/11/08 03:03:14;;;;;;;6.90;2.45;;;11.20;99.90;;;;;;5077828;28;20043;-84
2022/11/08 03:05:41;;;;;;;8.38;2.33;;;11.20;99.90;;;;;;5061448;28;20040;-84
2022/11/08 03:08:07;;;;;;;3.78;1.38;;;11.10;99.90;;;;;;5041459;28;20190;-84
2022/11/08 03:10:33;;;;;;;1.52;1.00;;;11.10;99.90;;;;;;5041478;28;20498;-84
2022/11/08 03:13:00;;;;;;;6.57;1.70;;;11.10;99.90;;;;;;5057854;28;20040;-84
2022/11/08 03:15:27;;;;;;;5.07;1.70;;;11.20;99.90;;;;;;5077298;28;20466;-84
2022/11/08 03:17:54;;;;;;;3.05;1.73;;;11.10;99.90;;;;;;5028108;28;20039;-83
2022/11/08 03:20:20;;;;;;;2.10;1.10;;;11.00;99.90;;;;;;5044080;28;20409;-84
2022/11/08 03:22:46;;;;;;;4.28;1.70;;;11.00;99.90;;;;;;5077571;28;20040;-84
2022/11/08 03:25:12;;;;;;;4.88;1.48;;;11.00;99.90;;;;;;5077144;28;20119;-84
2022/11/08 03:27:38;;;;;;;3.33;1.35;;;11.90;99.90;;;;;;5077258;28;20493;-84
2022/11/08 03:30:05;;;;;;;3.40;1.70;;;10.90;99.90;;;;;;5077662;28;20093;-84
2022/11/08 03:32:31;;;;;;;7.88;1.70;;;10.90;99.90;;;;;;5049426;28;20086;-84
2022/11/08 03:34:58;;;;;;;3.97;1.92;;;11.00;99.90;;;;;;5059055;28;20057;-82
2022/11/08 03:37:24;;;;;;;3.60;1.30;;;10.90;99.90;;;;;;5060679;28;20075;-82
2022/11/08 03:39:50;;;;;;;8.02;2.42;;;10.90;99.90;;;;;;5078317;28;20075;-82
2022/11/08 03:42:15;;;;;;;5.90;1.65;;;10.80;99.90;;;;;;5061992;28;20035;-82
2022/11/08 03:44:41;;;;;;;3.78;1.33;;;10.80;99.90;;;;;;5040293;28;20043;-82
2022/11/08 03:47:08;;;;;;;2.75;1.25;;;10.80;99.90;;;;;;5025099;28;20044;-82
2022/11/08 03:49:34;;;;;;;7.97;1.20;;;10.70;99.90;;;;;;5058320;28;20061;-82
2022/11/08 03:52:00;;;;;;;2.92;1.17;;;10.70;99.90;;;;;;5061384;28;20079;-82
2022/11/08 03:54:25;;;;;;;2.60;1.23;;;10.60;99.90;;;;;;5074258;28;20387;-82
2022/11/08 03:56:51;;;;;;;2.13;1.38;;;10.60;99.90;;;;;;5060656;28;20040;-82
2022/11/08 03:59:17;;;;;;;4.00;1.35;;;10.60;99.90;;;;;;5076019;28;20549;-82
2022/11/08 04:01:42;;;;;;;7.80;1.95;;;10.60;99.90;;;;;;5040048;28;20116;-82
2022/11/08 04:04:08;;;;;;;4.60;2.30;;;10.50;99.90;;;;;;5055766;28;20079;-82
2022/11/08 04:06:34;;;;;;;4.10;1.55;;;10.50;99.90;;;;;;5055173;28;20470;-82
2022/11/08 04:09:00;;;;;;;3.42;1.50;;;10.50;99.90;;;;;;5059667;28;20055;-84
2022/11/08 04:16:55;;;;;;;4.10;1.40;;;10.50;99.90;;;;;;5076083;28;20516;-84
2022/11/08 04:22:07;;;;;;;6.30;1.83;;;10.40;99.90;;;;;;5066549;28;20075;-83
2022/11/08 04:24:33;;;;;;;7.18;1.58;;;10.40;99.90;;;;;;5077229;28;20048;-82
2022/11/08 04:26:59;;;;;;;5.60;1.58;;;10.40;99.90;;;;;;5061204;28;20536;-82
2022/11/08 04:29:24;;;;;;;1.63;1.08;;;10.40;99.90;;;;;;5077502;28;20031;-82
2022/11/08 04:31:50;;;;;;;4.18;1.70;;;10.30;99.90;;;;;;5060957;28;20474;-82
2022/11/08 04:34:16;;;;;;;4.03;1.50;;;10.30;99.90;;;;;;5059729;28;20043;-82
2022/11/08 04:36:41;;;;;;;5.60;1.40;;;10.40;99.90;;;;;;5059954;28;20092;-82
2022/11/08 04:39:07;;;;;;;2.92;1.60;;;10.40;99.90;;;;;;5060291;28;20545;-82
2022/11/08 04:41:33;;;;;;;5.15;1.50;;;10.40;99.90;;;;;;5055840;28;20132;-82
2022/11/08 04:43:58;;;;;;;1.95;1.25;;;10.50;99.90;;;;;;5027417;28;20063;-82
2022/11/08 04:46:26;;;;;;;8.15;1.90;;;10.40;99.90;;;;;;5025222;28;20123;-82
2022/11/08 04:48:54;;;;;;;5.22;1.50;;;10.70;99.90;;;;;;5068310;28;20032;-82
2022/11/08 04:51:22;;;;;;;2.47;1.30;;;10.40;99.90;;;;;;5063871;28;20062;-82
2022/11/08 04:53:49;;;;;;;2.92;1.38;;;10.40;99.90;;;;;;5048143;28;20041;-81
2022/11/08 04:56:19;;;;;;;2.40;1.48;;;10.50;99.90;;;;;;5067687;28;20126;-82
2022/11/08 04:58:47;;;;;;;7.32;1.80;;;10.40;99.90;;;;;;5073135;28;20048;-84
2022/11/08 05:01:16;;;;;;;2.28;1.25;;;10.40;99.90;;;;;;5059000;28;20040;-84
2022/11/08 05:03:43;;;;;;;3.42;1.80;;;10.40;99.90;;;;;;5069222;28;20082;-84
2022/11/08 05:06:31;;;;;;;4.25;1.45;;;10.40;99.90;;;;;;5070095;28;20124;-83
2022/11/08 05:08:58;;;;;;;2.45;1.38;;;10.40;99.90;;;;;;5073069;28;20039;-84
2022/11/08 05:11:26;;;;;;;6.43;1.83;;;10.40;99.90;;;;;;5074518;28;20050;-84
2022/11/08 05:13:52;;;;;;;6.45;1.40;;;10.50;99.90;;;;;;5057858;28;20066;-82
2022/11/08 05:16:27;;;;;;;3.15;1.52;;;10.40;99.90;;;;;;5059910;28;20565;-81
2022/11/08 05:18:53;;;;;;;5.55;1.70;;;10.40;99.90;;;;;;5076457;28;20113;-81
2022/11/08 05:24:06;;;;;;;;;;;10.40;99.90;;;;;;5077853;28;20367;-82
2022/11/08 05:26:34;;;;;;;3.75;1.73;;;10.40;99.90;;;;;;5058949;28;20374;-81
2022/11/08 05:29:00;;;;;;;4.55;1.60;;;10.40;99.90;;;;;;5073979;28;20032;-82
2022/11/08 05:31:26;;;;;;;10.00;2.28;;;10.50;99.90;;;;;;5059501;28;20051;-82
2022/11/08 05:33:52;;;;;;;5.25;2.15;;;10.50;99.90;;;;;;5057250;28;20498;-82
2022/11/08 05:36:18;;;;;;;3.83;1.60;;;10.50;99.90;;;;;;5084172;28;20084;-82
2022/11/08 05:38:44;;;;;;;4.20;1.52;;;10.50;99.90;;;;;;5042008;28;20098;-82
2022/11/08 05:41:20;;;;;;;10.57;1.70;;;10.50;99.90;;;;;;5058703;28;20098;-83
2022/11/08 05:43:48;;;;;;;4.15;1.50;;;10.50;99.90;;;;;;5075094;28;20485;-82
2022/11/08 05:46:14;;;;;;;5.40;1.88;;;10.50;99.90;;;;;;5058597;28;20032;-83
2022/11/08 05:48:45;;;;;;;6.63;1.73;;;10.40;99.90;;;;;;5075567;28;20040;-84
2022/11/08 05:51:13;;;;;;;4.43;1.40;;;10.40;99.90;;;;;;5073003;28;20063;-84
2022/11/08 05:53:39;;;;;;;3.83;1.25;;;10.40;99.90;;;;;;5075556;28;20440;-84
2022/11/08 05:56:05;;;;;;;2.33;1.48;;;10.40;99.90;;;;;;5055953;28;20052;-84
2022/11/08 05:58:32;;;;;;;2.38;1.35;;;10.40;99.90;;;;;;5050312;28;20060;-84
2022/11/08 06:01:00;;;;;;;5.60;2.95;;;10.40;99.90;;;;;;5073851;28;20131;-84
2022/11/08 06:03:25;;;;;;;6.25;1.30;;;10.30;99.90;;;;;;5061895;28;20040;-84
2022/11/08 06:05:51;;;;;;;6.13;1.73;;;10.30;99.90;;;;;;5077419;28;20085;-84
2022/11/08 06:08:17;;;;;;;3.03;1.48;;;10.40;99.90;;;;;;5078894;28;20122;-84
2022/11/08 06:10:42;;;;;;;3.22;1.52;;;10.30;99.90;;;;;;5041794;28;20543;-84
2022/11/08 06:13:08;;;;;;;3.40;1.30;;;10.30;99.90;;;;;;5055713;22;20036;-82
2022/11/08 06:15:34;;;;;;;4.85;1.50;;;10.30;99.90;;;;;;5075704;28;20083;-82
2022/11/08 06:18:03;;;;;;;4.43;1.42;;;10.30;99.90;;;;;;5075522;28;20444;-82
2022/11/08 06:20:30;;;;;;;4.28;1.35;;;10.30;99.90;;;;;;5044038;28;20080;-83
2022/11/08 06:22:55;;;;;;;2.13;1.05;;;10.30;99.90;;;;;;5058814;28;20086;-83
2022/11/08 06:25:21;;;;;;;5.05;1.20;;;10.50;99.90;;;;;;5051901;28;20025;-84
2022/11/08 06:27:47;;;;;;;2.65;1.30;;;10.40;99.90;;;;;;5059352;28;20086;-84
2022/11/08 06:30:13;;;;;;;4.22;1.42;;;11.20;99.90;;;;;;5051014;28;20558;-84
2022/11/08 06:32:39;;;;;;;6.35;1.70;;;10.50;99.90;;;;;;5075040;28;20502;-84
2022/11/08 06:35:05;;;;;;;4.70;1.52;;;10.60;99.90;;;;;;5034454;28;20044;-84
2022/11/08 06:37:31;;;;;;;4.65;1.60;;;10.60;99.90;;;;;;5072395;28;20072;-83
2022/11/08 06:39:58;;;;;;;4.72;1.60;;;10.60;99.90;;;;;;5058944;28;20102;-81
2022/11/08 06:42:24;;;;;;;2.97;1.30;;;10.60;99.90;;;;;;5040469;28;20584;-81
2022/11/08 06:44:50;;;;;;;5.25;1.67;;;10.60;99.90;;;;;;5075918;28;20079;-81
2022/11/08 06:47:16;;;;;;;2.50;1.23;;;10.60;99.90;;;;;;5058668;28;20040;-81
2022/11/08 06:49:42;;;;;;;2.35;1.20;;;10.60;99.90;;;;;;5057812;28;20132;-81
2022/11/08 06:52:08;;;;;;;4.80;1.38;;;10.60;99.90;;;;;;5038677;28;20049;-81
2022/11/08 06:54:33;;;;;;;5.28;1.35;;;10.70;99.90;;;;;;5044059;28;20044;-83
2022/11/08 06:57:00;;;;;;;9.32;2.30;;;10.60;99.90;;;;;;5074632;28;20055;-82
2022/11/08 06:59:27;;;;;;;2.70;1.20;;;10.70;99.90;;;;;;5058809;28;20059;-83
2022/11/08 07:01:54;;;;;;;2.22;1.30;;;10.70;99.90;;;;;;5044487;28;20067;-83
2022/11/08 07:04:19;;;;;;;2.67;1.20;;;10.60;99.90;;;;;;5040111;28;20037;-83
2022/11/08 07:06:45;;;;;;;5.03;1.30;;;10.60;99.90;;;;;;5065769;28;20085;-83
2022/11/08 07:09:11;;;;;;;3.33;1.48;;;10.70;99.90;;;;;;5076548;28;20398;-83
2022/11/08 07:11:37;;;;;;;3.47;1.40;;;10.70;99.90;;;;;;5049276;28;20041;-81
2022/11/08 07:14:03;;;;;;;6.18;1.20;;;10.70;99.90;;;;;;5070422;28;20467;-81
2022/11/08 07:16:29;;;;;;;3.53;1.55;;;10.70;99.90;;;;;;5042545;28;20048;-81
2022/11/08 07:18:54;;;;;;;3.95;1.35;;;10.80;99.90;;;;;;5059211;28;20051;-81
2022/11/08 07:21:21;;;;;;;4.47;1.50;;;10.80;99.90;;;;;;5076079;28;20041;-81
2022/11/08 07:23:47;;;;;;;3.80;1.67;;;10.80;99.90;;;;;;5070422;28;20041;-82
2022/11/08 07:26:14;;;;;;;4.82;1.40;;;10.90;99.90;;;;;;5066893;28;20040;-82
2022/11/08 07:28:40;;;;;;;3.28;1.30;;;10.90;99.90;;;;;;5070482;28;20039;-82
2022/11/08 07:31:07;;;;;;;3.22;1.65;;;11.10;99.90;;;;;;5069117;28;20127;-83
2022/11/08 07:33:33;;;;;;;5.13;1.58;;;11.00;99.90;;;;;;5053453;28;20083;-82
2022/11/08 07:35:59;;;;;;;3.75;1.65;;;11.10;99.90;;;;;;5057260;28;20565;-83
2022/11/08 07:38:25;;;;;;;3.17;1.45;;;11.10;99.90;;;;;;5040236;28;20045;-82
2022/11/08 07:40:58;;;;;;;3.95;1.50;;;11.10;99.90;;;;;;5057440;28;20482;-82
2022/11/08 07:43:24;;;;;;;7.93;1.70;;;11.10;99.90;;;;;;5057085;28;20039;-84
2022/11/08 07:45:55;;;;;;;6.72;1.73;;;11.20;99.90;;;;;;5073288;28;20505;-84
2022/11/08 07:48:21;;;;;;;4.93;1.30;;;11.20;99.90;;;;;;5074399;28;20063;-84
2022/11/08 07:50:47;;;;;;;2.70;1.30;;;11.30;99.90;;;;;;5057412;28;20090;-84
2022/11/08 07:53:13;;;;;;;1.95;1.33;;;11.30;99.90;;;;;;5055532;28;20045;-84
2022/11/08 07:55:39;;;;;;;4.22;1.40;;;11.40;99.90;;;;;;5049778;28;20169;-83
2022/11/08 07:58:06;;;;;;;3.60;1.30;;;11.50;99.90;;;;;;5056319;28;20090;-84
2022/11/08 08:00:37;;;;;;;3.55;1.45;;;11.50;99.90;;;;;;5055686;28;20090;-85
2022/11/08 08:03:04;;;;;;;2.30;1.30;;;11.60;99.90;;;;;;5040478;28;20060;-84
2022/11/08 08:05:34;;;;;;;2.25;1.20;;;11.90;99.90;;;;;;5072208;28;20495;-84
2022/11/08 08:08:00;;;;;;;3.33;1.60;;;12.20;99.90;;;;;;5056165;28;20051;-84
2022/11/08 08:10:27;;;;;;;4.53;1.80;;;12.20;99.90;;;;;;5056814;28;20059;-84
2022/11/08 08:12:53;;;;;;;3.40;1.40;;;12.30;99.90;;;;;;5072870;28;20052;-84
2022/11/08 08:15:19;;;;;;;2.67;1.30;;;12.30;99.90;;;;;;5056793;28;20450;-83
2022/11/08 08:17:46;;;;;;;6.30;1.58;;;12.30;99.90;;;;;;5040616;28;20475;-82
2022/11/08 08:20:12;;;;;;;3.42;1.40;;;12.20;99.90;;;;;;5039506;28;20045;-82
2022/11/08 08:22:49;;;;;;;4.35;1.63;;;12.40;99.90;;;;;;5053590;28;20083;-82
2022/11/08 08:25:16;;;;;;;3.22;1.40;;;12.60;99.90;;;;;;5052409;28;20115;-82
2022/11/08 08:27:49;;;;;;;4.10;1.50;;;12.90;99.90;;;;;;5045798;28;20094;-82
2022/11/08 08:30:16;;;;;;;1.98;1.23;;;13.10;99.90;;;;;;5073079;28;20508;-82
2022/11/08 08:32:43;;;;;;;3.22;1.42;;;13.50;99.90;;;;;;5073256;28;20180;-82
2022/11/08 08:35:09;;;;;;;5.13;1.67;;;13.80;99.90;;;;;;5072588;28;20044;-85
2022/11/08 08:37:34;;;;;;;3.88;1.63;;;14.30;99.90;;;;;;5072153;28;20040;-84
2022/11/08 08:40:00;;;;;;;3.05;1.50;;;14.50;99.90;;;;;;5054092;28;20146;-84
2022/11/08 08:42:26;;;;;;;1.85;1.00;;;14.50;99.90;;;;;;5055679;28;20082;-84
2022/11/08 08:44:52;;;;;;;2.70;1.55;;;14.60;99.90;;;;;;5071740;28;20037;-84
2022/11/08 08:47:17;;;;;;;2.67;1.15;;;14.60;99.90;;;;;;5071231;28;20036;-84
2022/11/08 08:49:43;;;;;;;3.55;1.50;;;14.60;99.90;;;;;;5052604;28;20041;-86
2022/11/08 08:52:09;;;;;;;2.58;1.10;;;14.80;99.90;;;;;;5072331;28;20499;-83
2022/11/08 08:54:34;;;;;;;3.65;1.30;;;14.70;99.90;;;;;;5072071;28;20040;-83
2022/11/08 08:57:00;;;;;;;2.60;1.40;;;14.70;99.90;;;;;;5072056;28;20044;-83
2022/11/08 08:59:27;;;;;;;2.65;1.30;;;14.80;99.90;;;;;;5072222;28;20044;-83
2022/11/08 09:01:52;;;;;;;6.78;1.60;;;14.60;99.90;;;;;;5054896;28;20041;-84
2022/11/08 09:04:18;;;;;;;3.42;1.52;;;14.50;99.90;;;;;;5061950;28;20036;-83
2022/11/08 09:06:44;;;;;;;4.03;1.40;;;14.30;99.90;;;;;;5023419;28;20186;-83
2022/11/08 09:09:09;;;;;;;2.17;1.50;;;14.20;99.90;;;;;;5072325;28;20040;-83
2022/11/08 09:11:35;;;;;;;2.90;1.40;;;14.10;99.90;;;;;;5072530;28;20086;-83
2022/11/08 09:14:01;;;;;;;4.72;1.33;;;14.00;99.90;;;;;;5055744;28;20056;-83
2022/11/08 09:16:27;;;;;;;3.22;1.20;;;13.90;99.90;;;;;;5072663;28;20047;-83
2022/11/08 09:18:52;;;;;;;3.22;1.52;;;13.80;99.90;;;;;;5072593;28;20123;-83
2022/11/08 09:21:18;;;;;;;2.05;0.95;;;13.80;99.90;;;;;;5039097;28;20050;-83
2022/11/08 09:23:44;;;;;;;2.15;1.35;;;13.70;99.90;;;;;;5035218;28;20040;-83
2022/11/08 09:26:10;;;;;;;2.75;1.40;;;13.70;99.90;;;;;;5033247;28;20406;-83
2022/11/08 09:28:36;;;;;;;3.70;1.70;;;13.70;99.90;;;;;;5052126;28;20041;-83
2022/11/08 09:31:04;;;;;;;2.42;1.20;;;13.70;99.90;;;;;;5071690;28;20044;-83
2022/11/08 09:33:30;;;;;;;2.83;1.30;;;13.60;99.90;;;;;;5072246;28;20131;-83
2022/11/08 09:35:57;;;;;;;3.85;1.42;;;13.60;99.90;;;;;;5056384;28;20132;-83
2022/11/08 09:38:22;;;;;;;5.80;2.08;;;13.60;99.90;;;;;;5076455;28;20513;-83
2022/11/08 09:40:58;;;;;;;1.92;1.60;;;13.60;99.90;;;;;;5076331;28;20033;-82
2022/11/08 09:43:33;;;;;;;2.15;1.30;;;13.60;99.90;;;;;;5076515;28;20032;-83
2022/11/08 09:45:59;;;;;;;2.33;1.65;;;13.60;99.90;;;;;;5076615;28;20040;-83
2022/11/08 09:48:30;;;;;;;3.28;1.48;;;13.60;99.90;;;;;;5042175;28;20552;-83
2022/11/08 09:50:57;;;;;;;3.88;1.30;;;13.60;99.90;;;;;;5070549;28;20094;-83
2022/11/08 09:53:50;;;;;;;4.15;1.50;;;13.60;99.90;;;;;;5075948;28;20052;-82
2022/11/08 09:56:31;;;;;;;3.17;1.33;;;13.60;99.90;;;;;;5075905;28;20044;-83
2022/11/08 09:59:09;;;;;;;3.03;1.50;;;13.50;99.90;;;;;;5059219;28;20047;-83
2022/11/08 10:01:35;;;;;;;2.88;1.45;;;13.40;99.90;;;;;;5045138;28;20479;-83
2022/11/08 10:04:06;;;;;;;5.40;1.33;;;13.50;99.90;;;;;;5039022;28;20128;-83
2022/11/08 10:06:47;;;;;;;2.05;1.05;;;13.50;99.90;;;;;;5056108;28;20049;-83
2022/11/08 10:09:42;;;;;;;9.57;1.52;;;13.50;99.90;;;;;;5039083;28;20040;-83
2022/11/08 10:12:21;;;;;;;1.73;1.15;;;13.50;99.90;;;;;;5072570;28;20048;-83
2022/11/08 10:15:22;;;;;;;4.18;1.70;;;13.60;99.90;;;;;;5075651;28;20110;-82
2022/11/08 10:17:48;;;;;;;3.38;1.55;;;13.50;99.90;;;;;;5058872;28;20044;-82
2022/11/08 10:20:34;;;;;;;5.53;1.90;;;13.60;99.90;;;;;;5062111;28;20044;-82
2022/11/08 10:23:20;;;;;;;2.50;1.20;;;13.60;99.90;;;;;;5055644;28;20393;-82
2022/11/08 10:26:10;;;;;;;2.63;1.27;;;13.50;99.90;;;;;;5069342;28;20040;-81
2022/11/08 10:28:53;;;;;;;4.15;1.40;;;13.50;99.90;;;;;;5070383;28;20049;-82
2022/11/08 10:31:20;;;;;;;2.47;1.20;;;13.40;99.90;;;;;;5075175;28;20101;-82
2022/11/08 10:33:52;;;;;;;3.60;1.70;;;13.40;99.90;;;;;;5071460;28;20079;-81
2022/11/08 10:36:32;;;;;;;6.65;1.75;;;13.30;99.90;;;;;;5057933;28;20102;-81
2022/11/08 10:39:07;;;;;;;2.35;1.30;;;13.30;99.90;;;;;;5074858;28;20051;-82
2022/11/08 10:41:49;;;;;;;5.10;1.50;;;13.20;99.90;;;;;;5074710;28;20036;-81
2022/11/08 10:44:20;;;;;;;3.58;1.20;;;13.20;99.90;;;;;;5068476;28;20052;-81
2022/11/08 10:46:49;;;;;;;4.35;1.42;;;13.30;99.90;;;;;;5066915;28;20044;-81
2022/11/08 10:49:19;;;;;;;6.00;1.77;;;13.40;99.90;;;;;;5074173;28;20084;-82
2022/11/08 10:51:48;;;;;;;3.47;1.27;;;13.40;99.90;;;;;;5073831;28;20044;-82
2022/11/08 10:54:49;;;;;;;3.47;1.13;;;13.50;99.90;;;;;;5073824;28;20533;-85
2022/11/08 10:57:30;;;;;;;2.30;1.33;;;13.60;99.90;;;;;;5057748;28;20041;-85
2022/11/08 11:00:13;;;;;;;2.78;1.58;;;13.60;99.90;;;;;;5054932;28;20041;-85
2022/11/08 11:02:39;;;;;;;2.80;1.50;;;13.70;99.90;;;;;;5072679;28;20106;-85
2022/11/08 11:05:23;;;;;;;5.65;1.70;;;13.90;99.90;;;;;;5073850;28;20128;-83
2022/11/08 11:08:25;;;;;;;4.32;2.28;;;14.10;99.90;;;;;;5069969;28;20044;-83
2022/11/08 11:10:51;;;;;;;2.78;1.42;;;14.10;99.90;;;;;;5011271;28;20037;-82
2022/11/08 11:13:25;;;;;;;3.90;1.65;;;14.10;99.90;;;;;;5045053;28;20066;-82
2022/11/08 11:16:03;;;;;;;3.42;1.33;;;14.30;99.90;;;;;;5037876;28;20130;-82
2022/11/08 11:18:32;;;;;;;5.28;1.77;;;14.50;99.90;;;;;;5056789;28;20045;-81
2022/11/08 11:21:23;;;;;;;5.88;1.50;;;14.70;99.90;;;;;;5062327;28;20067;-83
2022/11/08 11:23:52;;;;;;;2.13;1.20;;;14.90;99.90;;;;;;5055297;28;20502;-83
2022/11/08 11:26:37;;;;;;;2.13;1.13;;;15.00;99.90;;;;;;5054915;28;20048;-83
2022/11/08 11:29:05;;;;;;;4.80;1.58;;;15.10;99.90;;;;;;5055414;28;20045;-83
2022/11/08 11:31:38;;;;;;;3.13;1.25;;;15.20;99.90;;;;;;5037852;28;20049;-83
2022/11/08 11:34:16;;;;;;;2.13;1.35;;;15.20;99.90;;;;;;5054971;28;20044;-83
2022/11/08 11:36:52;;;;;;;3.10;1.38;;;15.10;99.90;;;;;;5064391;28;20123;-83
2022/11/08 11:39:38;;;;;;;2.40;1.20;;;15.10;99.90;;;;;;5057217;28;20053;-83
2022/11/08 11:42:16;;;;;;;1.70;1.13;;;15.10;99.90;;;;;;5057518;28;20041;-82
2022/11/08 11:44:45;;;;;;;2.33;1.17;;;15.20;99.90;;;;;;5058000;28;20036;-83
2022/11/08 11:47:16;;;;;;;2.03;1.23;;;15.10;99.90;;;;;;5057863;28;20048;-83
2022/11/08 11:49:44;;;;;;;6.93;1.17;;;15.20;99.90;;;;;;5057208;28;20670;-83
2022/11/08 11:52:18;;;;;;;2.40;1.00;;;15.20;99.90;;;;;;5074188;28;20088;-83
2022/11/08 11:54:48;;;;;;;2.92;1.25;;;15.10;99.90;;;;;;5054161;28;20072;-81
2022/11/08 11:57:18;;;;;;;2.47;1.00;;;15.20;99.90;;;;;;5053639;28;20045;-81
2022/11/08 11:59:58;;;;;;;4.68;1.42;;;15.20;99.90;;;;;;5043878;28;20036;-81
2022/11/08 12:02:52;;;;;;;3.15;1.02;;;15.20;99.90;;;;;;5057302;28;20041;-81
2022/11/08 12:05:45;;;;;;;2.60;1.30;;;15.20;99.90;;;;;;5073705;28;20478;-81
2022/11/08 12:08:41;;;;;;;2.42;1.10;;;15.30;99.90;;;;;;5057066;28;20040;-81
2022/11/08 12:11:34;;;;;;;2.22;1.25;;;15.40;99.90;;;;;;5072908;28;20036;-81
2022/11/08 12:14:13;;;;;;;2.00;1.10;;;15.40;99.90;;;;;;5073592;28;20067;-81
2022/11/08 12:17:10;;;;;;;1.73;1.13;;;15.50;99.90;;;;;;5072280;28;20131;-81
2022/11/08 12:19:35;;;;;;;;;;;15.50;99.90;;;;;;5071781;28;20098;-81
2022/11/08 12:22:22;;;;;;;2.37;1.07;;;15.40;99.90;;;;;;5073027;28;19916;-81
2022/11/08 12:25:06;;;;;;;1.50;1.13;;;15.30;99.90;;;;;;5071016;28;20046;-81
2022/11/08 12:27:52;;;;;;;2.58;0.98;;;15.40;99.90;;;;;;5072623;28;20041;-81
2022/11/08 12:30:54;;;;;;;2.67;1.02;;;15.40;99.90;;;;;;5073623;28;20119;-81
2022/11/08 12:33:39;;;;;;;4.45;1.50;;;15.40;99.90;;;;;;5052469;28;20135;-81
2022/11/08 12:36:16;;;;;;;3.15;1.00;;;15.50;99.90;;;;;;5072418;28;20041;-81
2022/11/08 12:39:13;;;;;;;9.93;1.35;;;15.50;99.90;;;;;;5055946;28;20036;-82
2022/11/08 12:41:42;;;;;;;3.08;1.30;;;15.60;99.90;;;;;;5055418;28;20041;-81
2022/11/08 12:44:32;;;;;;;2.28;1.10;;;15.70;99.90;;;;;;5055971;28;20486;-81
2022/11/08 12:47:01;;;;;;;1.77;1.02;;;15.70;99.90;;;;;;5071973;28;20043;-81
2022/11/08 12:49:37;;;;;;;1.55;1.00;;;15.70;99.90;;;;;;5055944;28;20037;-82
2022/11/08 12:52:27;;;;;;;3.47;1.25;;;15.70;99.90;;;;;;5036020;28;20036;-82
2022/11/08 12:54:59;;;;;;;3.63;1.05;;;15.70;99.90;;;;;;5052577;28;20098;-82
2022/11/08 12:57:30;;;;;;;2.28;1.20;;;15.70;99.90;;;;;;5065828;28;20040;-81
2022/11/08 13:00:04;;;;;;;1.98;1.10;;;15.60;99.90;;;;;;5072283;28;20036;-82
2022/11/08 13:02:37;;;;;;;2.40;1.00;;;15.60;99.90;;;;;;5071937;28;20548;-81
2022/11/08 13:05:19;;;;;;;2.45;0.95;;;15.70;99.90;;;;;;5072267;28;20040;-81
2022/11/08 13:07:57;;;;;;;1.45;0.82;;;15.80;99.90;;;;;;5071895;28;20044;-81
2022/11/08 13:10:48;;;;;;;2.45;1.27;;;15.80;99.90;;;;;;5071400;28;20041;-81
2022/11/08 13:13:57;;;;;;;1.52;0.90;;;15.90;99.90;;;;;;5071766;28;20110;-81
2022/11/08 13:16:24;;;;;;;4.90;1.55;;;16.00;99.90;;;;;;4974788;28;20054;-81
2022/11/08 13:18:52;;;;;;;4.68;1.38;;;16.10;99.90;;;;;;5057807;28;20079;-82
2022/11/08 13:21:42;;;;;;;3.50;1.23;;;16.20;99.90;;;;;;5071648;28;20048;-81
2022/11/08 13:24:09;;;;;;;3.85;1.58;;;16.30;99.90;;;;;;5050316;28;20584;-82